sensor_id;sensor_type;location;lat;lon;timestamp;P1;durP1;ratioP1;P2;durP2;ratioP2
24751;SDS011;27246;52.376;4.628;2023-04-01T00:03:43;16.25;;;5.10;;
24751;SDS011;27246;52.376;4.628;2023-04-01T00:08:46;16.45;;;5.88;;
24751;SDS011;27246;52.376;4.628;2023-04-01T00:13:48;14.40;;;5.30;;
24751;SDS011;27246;52.376;4.628;2023-04-01T00:18:50;11.85;;;5.05;;
24751;SDS011;27246;52.376;4.628;2023-04-01T00:23:52;16.08;;;5.18;;
24751;SDS011;27246;52.376;4.628;2023-04-01T00:28:53;16.13;;;5.63;;
24751;SDS011;27246;52.376;4.628;2023-04-01T00:33:55;13.05;;;5.03;;
24751;SDS011;27246;52.376;4.628;2023-04-01T00:38:57;11.63;;;4.68;;
24751;SDS011;27246;52.376;4.628;2023-04-01T00:44:17;10.85;;;4.22;;
24751;SDS011;27246;52.376;4.628;2023-04-01T00:49:44;10.20;;;3.65;;
24751;SDS011;27246;52.376;4.628;2023-04-01T00:54:50;7.70;;;3.60;;
24751;SDS011;27246;52.376;4.628;2023-04-01T00:59:57;6.82;;;3.45;;
24751;SDS011;27246;52.376;4.628;2023-04-01T01:05:00;9.63;;;4.45;;
24751;SDS011;27246;52.376;4.628;2023-04-01T01:10:19;14.77;;;6.50;;
24751;SDS011;27246;52.376;4.628;2023-04-01T01:15:44;12.27;;;4.82;;
24751;SDS011;27246;52.376;4.628;2023-04-01T01:31:23;12.82;;;3.83;;
24751;SDS011;27246;52.376;4.628;2023-04-01T01:36:31;10.05;;;4.05;;
24751;SDS011;27246;52.376;4.628;2023-04-01T01:41:39;9.88;;;4.50;;
24751;SDS011;27246;52.376;4.628;2023-04-01T01:46:45;7.30;;;3.78;;
24751;SDS011;27246;52.376;4.628;2023-04-01T01:51:48;7.05;;;4.28;;
24751;SDS011;27246;52.376;4.628;2023-04-01T01:56:51;8.98;;;5.28;;
24751;SDS011;27246;52.376;4.628;2023-04-01T02:02:20;7.70;;;4.30;;
24751;SDS011;27246;52.376;4.628;2023-04-01T02:07:25;7.85;;;5.70;;
24751;SDS011;27246;52.376;4.628;2023-04-01T02:12:32;10.85;;;6.40;;
24751;SDS011;27246;52.376;4.628;2023-04-01T02:17:39;9.82;;;6.85;;
24751;SDS011;27246;52.376;4.628;2023-04-01T02:22:54;11.48;;;7.47;;
24751;SDS011;27246;52.376;4.628;2023-04-01T02:27:59;9.82;;;7.43;;
24751;SDS011;27246;52.376;4.628;2023-04-01T02:33:01;11.95;;;8.27;;
24751;SDS011;27246;52.376;4.628;2023-04-01T02:38:05;13.93;;;8.98;;
24751;SDS011;27246;52.376;4.628;2023-04-01T02:43:08;12.63;;;8.38;;
24751;SDS011;27246;52.376;4.628;2023-04-01T02:48:10;12.23;;;8.93;;
24751;SDS011;27246;52.376;4.628;2023-04-01T02:53:11;16.20;;;11.52;;
24751;SDS011;27246;52.376;4.628;2023-04-01T02:58:13;16.33;;;11.55;;
24751;SDS011;27246;52.376;4.628;2023-04-01T03:03:15;14.52;;;11.35;;
24751;SDS011;27246;52.376;4.628;2023-04-01T03:08:17;17.55;;;12.27;;
24751;SDS011;27246;52.376;4.628;2023-04-01T03:13:18;15.10;;;12.50;;
24751;SDS011;27246;52.376;4.628;2023-04-01T03:18:20;23.50;;;14.88;;
24751;SDS011;27246;52.376;4.628;2023-04-01T03:23:22;18.88;;;14.52;;
24751;SDS011;27246;52.376;4.628;2023-04-01T03:28:25;21.08;;;13.95;;
24751;SDS011;27246;52.376;4.628;2023-04-01T03:33:27;18.05;;;13.20;;
24751;SDS011;27246;52.376;4.628;2023-04-01T03:38:29;20.50;;;12.65;;
24751;SDS011;27246;52.376;4.628;2023-04-01T03:43:31;13.88;;;10.18;;
24751;SDS011;27246;52.376;4.628;2023-04-01T03:48:34;20.00;;;13.45;;
24751;SDS011;27246;52.376;4.628;2023-04-01T03:53:35;18.83;;;14.00;;
24751;SDS011;27246;52.376;4.628;2023-04-01T03:58:39;17.23;;;11.95;;
24751;SDS011;27246;52.376;4.628;2023-04-01T04:03:42;17.80;;;12.68;;
24751;SDS011;27246;52.376;4.628;2023-04-01T04:08:46;16.42;;;11.40;;
24751;SDS011;27246;52.376;4.628;2023-04-01T04:13:48;25.95;;;14.70;;
24751;SDS011;27246;52.376;4.628;2023-04-01T04:18:50;23.10;;;15.77;;
24751;SDS011;27246;52.376;4.628;2023-04-01T04:23:52;23.30;;;14.32;;
24751;SDS011;27246;52.376;4.628;2023-04-01T04:28:54;19.30;;;12.55;;
24751;SDS011;27246;52.376;4.628;2023-04-01T04:33:58;19.83;;;11.38;;
24751;SDS011;27246;52.376;4.628;2023-04-01T04:39:01;16.35;;;9.57;;
24751;SDS011;27246;52.376;4.628;2023-04-01T04:44:06;14.75;;;7.43;;
24751;SDS011;27246;52.376;4.628;2023-04-01T04:49:08;18.27;;;9.90;;
24751;SDS011;27246;52.376;4.628;2023-04-01T04:54:10;15.52;;;9.63;;
24751;SDS011;27246;52.376;4.628;2023-04-01T04:59:27;17.95;;;10.90;;
24751;SDS011;27246;52.376;4.628;2023-04-01T05:04:37;22.98;;;12.57;;
24751;SDS011;27246;52.376;4.628;2023-04-01T05:09:43;13.32;;;8.85;;
24751;SDS011;27246;52.376;4.628;2023-04-01T05:14:47;12.70;;;7.55;;
24751;SDS011;27246;52.376;4.628;2023-04-01T05:19:49;16.00;;;6.97;;
24751;SDS011;27246;52.376;4.628;2023-04-01T05:24:50;10.75;;;6.55;;
24751;SDS011;27246;52.376;4.628;2023-04-01T05:29:52;13.10;;;7.35;;
24751;SDS011;27246;52.376;4.628;2023-04-01T05:35:26;13.32;;;7.03;;
24751;SDS011;27246;52.376;4.628;2023-04-01T05:40:28;9.30;;;6.15;;
24751;SDS011;27246;52.376;4.628;2023-04-01T05:45:31;13.55;;;5.50;;
24751;SDS011;27246;52.376;4.628;2023-04-01T05:50:48;8.38;;;5.35;;
24751;SDS011;27246;52.376;4.628;2023-04-01T05:55:50;10.02;;;5.90;;
24751;SDS011;27246;52.376;4.628;2023-04-01T06:00:52;10.88;;;6.60;;
24751;SDS011;27246;52.376;4.628;2023-04-01T06:06:14;14.60;;;7.97;;
24751;SDS011;27246;52.376;4.628;2023-04-01T06:11:28;14.93;;;8.80;;
24751;SDS011;27246;52.376;4.628;2023-04-01T06:27:45;16.20;;;9.90;;
24751;SDS011;27246;52.376;4.628;2023-04-01T06:33:09;17.98;;;10.43;;
24751;SDS011;27246;52.376;4.628;2023-04-01T07:06:41;15.98;;;10.45;;
24751;SDS011;27246;52.376;4.628;2023-04-01T07:11:45;16.92;;;10.80;;
24751;SDS011;27246;52.376;4.628;2023-04-01T07:17:15;17.30;;;10.85;;
24751;SDS011;27246;52.376;4.628;2023-04-01T07:22:32;14.27;;;8.88;;
24751;SDS011;27246;52.376;4.628;2023-04-01T07:27:52;16.52;;;10.70;;
24751;SDS011;27246;52.376;4.628;2023-04-01T07:38:20;16.13;;;10.00;;
24751;SDS011;27246;52.376;4.628;2023-04-01T08:05:04;11.93;;;8.90;;
24751;SDS011;27246;52.376;4.628;2023-04-01T08:10:45;16.65;;;11.00;;
24751;SDS011;27246;52.376;4.628;2023-04-01T08:16:22;15.43;;;10.80;;
24751;SDS011;27246;52.376;4.628;2023-04-01T08:21:36;15.50;;;10.43;;
24751;SDS011;27246;52.376;4.628;2023-04-01T08:26:44;14.23;;;9.55;;
24751;SDS011;27246;52.376;4.628;2023-04-01T08:31:55;18.13;;;11.40;;
24751;SDS011;27246;52.376;4.628;2023-04-01T08:37:00;14.80;;;10.38;;
24751;SDS011;27246;52.376;4.628;2023-04-01T08:58:52;12.95;;;8.98;;
24751;SDS011;27246;52.376;4.628;2023-04-01T09:04:13;12.50;;;10.38;;
24751;SDS011;27246;52.376;4.628;2023-04-01T09:15:12;14.20;;;11.23;;
24751;SDS011;27246;52.376;4.628;2023-04-01T09:31:38;18.77;;;12.35;;
24751;SDS011;27246;52.376;4.628;2023-04-01T09:37:15;19.13;;;13.38;;
24751;SDS011;27246;52.376;4.628;2023-04-01T09:53:46;16.98;;;12.65;;
24751;SDS011;27246;52.376;4.628;2023-04-01T09:59:07;17.90;;;13.82;;
24751;SDS011;27246;52.376;4.628;2023-04-01T10:04:59;20.27;;;13.48;;
24751;SDS011;27246;52.376;4.628;2023-04-01T10:21:48;21.88;;;14.88;;
24751;SDS011;27246;52.376;4.628;2023-04-01T10:38:50;26.45;;;17.35;;
24751;SDS011;27246;52.376;4.628;2023-04-01T10:49:59;22.08;;;15.32;;
24751;SDS011;27246;52.376;4.628;2023-04-01T11:07:15;20.08;;;14.73;;
24751;SDS011;27246;52.376;4.628;2023-04-01T11:39:24;15.15;;;9.57;;
24751;SDS011;27246;52.376;4.628;2023-04-01T11:44:36;18.42;;;11.80;;
24751;SDS011;27246;52.376;4.628;2023-04-01T11:49:59;17.08;;;11.73;;
24751;SDS011;27246;52.376;4.628;2023-04-01T11:55:31;19.30;;;11.32;;
24751;SDS011;27246;52.376;4.628;2023-04-01T12:00:51;22.52;;;10.68;;
24751;SDS011;27246;52.376;4.628;2023-04-01T12:06:23;16.40;;;10.48;;
24751;SDS011;27246;52.376;4.628;2023-04-01T12:16:58;15.23;;;9.35;;
24751;SDS011;27246;52.376;4.628;2023-04-01T12:38:56;15.52;;;8.82;;
24751;SDS011;27246;52.376;4.628;2023-04-01T13:21:52;12.15;;;7.50;;
24751;SDS011;27246;52.376;4.628;2023-04-01T13:32:57;6.68;;;4.43;;
24751;SDS011;27246;52.376;4.628;2023-04-01T13:38:24;7.20;;;6.03;;
24751;SDS011;27246;52.376;4.628;2023-04-01T13:43:39;7.47;;;5.72;;
24751;SDS011;27246;52.376;4.628;2023-04-01T13:48:52;7.25;;;5.78;;
24751;SDS011;27246;52.376;4.628;2023-04-01T13:59:49;6.47;;;4.75;;
24751;SDS011;27246;52.376;4.628;2023-04-01T14:05:19;6.32;;;4.40;;
24751;SDS011;27246;52.376;4.628;2023-04-01T14:10:54;7.43;;;5.10;;
24751;SDS011;27246;52.376;4.628;2023-04-01T14:16:21;4.97;;;4.00;;
24751;SDS011;27246;52.376;4.628;2023-04-01T14:21:58;3.95;;;3.03;;
24751;SDS011;27246;52.376;4.628;2023-04-01T14:48:25;6.53;;;4.68;;
24751;SDS011;27246;52.376;4.628;2023-04-01T14:53:34;6.55;;;3.00;;
24751;SDS011;27246;52.376;4.628;2023-04-01T14:58:57;4.65;;;4.10;;
24751;SDS011;27246;52.376;4.628;2023-04-01T15:04:22;4.70;;;3.70;;
24751;SDS011;27246;52.376;4.628;2023-04-01T15:09:41;7.15;;;4.43;;
24751;SDS011;27246;52.376;4.628;2023-04-01T15:14:51;7.65;;;3.20;;
24751;SDS011;27246;52.376;4.628;2023-04-01T15:47:02;3.75;;;3.42;;
24751;SDS011;27246;52.376;4.628;2023-04-01T16:13:59;4.43;;;3.33;;
24751;SDS011;27246;52.376;4.628;2023-04-01T16:29:57;4.32;;;3.42;;
24751;SDS011;27246;52.376;4.628;2023-04-01T16:45:57;5.53;;;4.45;;
24751;SDS011;27246;52.376;4.628;2023-04-01T16:51:16;8.00;;;5.55;;
24751;SDS011;27246;52.376;4.628;2023-04-01T16:56:21;5.05;;;3.17;;
24751;SDS011;27246;52.376;4.628;2023-04-01T17:01:40;9.52;;;5.38;;
24751;SDS011;27246;52.376;4.628;2023-04-01T17:11:59;9.55;;;5.25;;
24751;SDS011;27246;52.376;4.628;2023-04-01T17:22:45;5.38;;;3.78;;
24751;SDS011;27246;52.376;4.628;2023-04-01T17:38:50;5.75;;;4.40;;
24751;SDS011;27246;52.376;4.628;2023-04-01T17:49:18;22.15;;;14.57;;
24751;SDS011;27246;52.376;4.628;2023-04-01T17:54:31;6.45;;;4.20;;
24751;SDS011;27246;52.376;4.628;2023-04-01T18:00:36;5.82;;;4.30;;
24751;SDS011;27246;52.376;4.628;2023-04-01T18:10:32;8.82;;;7.22;;
24751;SDS011;27246;52.376;4.628;2023-04-01T18:16:11;3.10;;;2.80;;
24751;SDS011;27246;52.376;4.628;2023-04-01T18:21:43;8.95;;;5.32;;
24751;SDS011;27246;52.376;4.628;2023-04-01T18:26:49;12.57;;;9.95;;
24751;SDS011;27246;52.376;4.628;2023-04-01T18:43:10;4.40;;;4.00;;
24751;SDS011;27246;52.376;4.628;2023-04-01T18:53:26;6.13;;;3.92;;
24751;SDS011;27246;52.376;4.628;2023-04-01T18:58:45;4.78;;;3.75;;
24751;SDS011;27246;52.376;4.628;2023-04-01T19:09:22;4.40;;;4.00;;
24751;SDS011;27246;52.376;4.628;2023-04-01T19:14:34;4.30;;;3.90;;
24751;SDS011;27246;52.376;4.628;2023-04-01T19:25:33;4.70;;;3.97;;
24751;SDS011;27246;52.376;4.628;2023-04-01T19:30:42;6.63;;;4.93;;
24751;SDS011;27246;52.376;4.628;2023-04-01T19:41:32;7.05;;;5.55;;
24751;SDS011;27246;52.376;4.628;2023-04-01T19:46:43;4.75;;;4.22;;
24751;SDS011;27246;52.376;4.628;2023-04-01T19:52:09;5.78;;;4.97;;
24751;SDS011;27246;52.376;4.628;2023-04-01T19:57:37;6.43;;;4.97;;
24751;SDS011;27246;52.376;4.628;2023-04-01T20:03:01;7.05;;;4.60;;
24751;SDS011;27246;52.376;4.628;2023-04-01T20:19:52;7.00;;;5.97;;
24751;SDS011;27246;52.376;4.628;2023-04-01T20:24:54;8.60;;;5.57;;
24751;SDS011;27246;52.376;4.628;2023-04-01T20:40:47;6.38;;;5.65;;
24751;SDS011;27246;52.376;4.628;2023-04-01T20:45:56;6.00;;;5.20;;
24751;SDS011;27246;52.376;4.628;2023-04-01T20:51:13;5.07;;;4.55;;
24751;SDS011;27246;52.376;4.628;2023-04-01T21:12:55;7.22;;;5.18;;
24751;SDS011;27246;52.376;4.628;2023-04-01T21:23:16;6.17;;;5.20;;
24751;SDS011;27246;52.376;4.628;2023-04-01T21:28:24;5.40;;;4.88;;
24751;SDS011;27246;52.376;4.628;2023-04-01T21:33:48;6.68;;;5.10;;
24751;SDS011;27246;52.376;4.628;2023-04-01T22:11:28;6.35;;;4.10;;
24751;SDS011;27246;52.376;4.628;2023-04-01T22:17:04;6.95;;;6.28;;
24751;SDS011;27246;52.376;4.628;2023-04-01T22:22:32;7.70;;;6.53;;
24751;SDS011;27246;52.376;4.628;2023-04-01T22:27:43;8.80;;;5.65;;
24751;SDS011;27246;52.376;4.628;2023-04-01T22:32:51;10.17;;;6.37;;
24751;SDS011;27246;52.376;4.628;2023-04-01T22:43:37;7.25;;;5.43;;
24751;SDS011;27246;52.376;4.628;2023-04-01T22:48:45;9.68;;;6.05;;
24751;SDS011;27246;52.376;4.628;2023-04-01T22:59:17;9.63;;;6.00;;
24751;SDS011;27246;52.376;4.628;2023-04-01T23:04:30;9.50;;;5.90;;
24751;SDS011;27246;52.376;4.628;2023-04-01T23:09:33;9.63;;;5.95;;
24751;SDS011;27246;52.376;4.628;2023-04-01T23:14:43;9.57;;;6.30;;
24751;SDS011;27246;52.376;4.628;2023-04-01T23:25:55;6.63;;;5.28;;
24751;SDS011;27246;52.376;4.628;2023-04-01T23:36:22;8.98;;;6.07;;
24751;SDS011;27246;52.376;4.628;2023-04-01T23:41:27;4.97;;;4.13;;
24751;SDS011;27246;52.376;4.628;2023-04-01T23:46:32;9.20;;;6.38;;
24751;SDS011;27246;52.376;4.628;2023-04-01T23:51:37;8.55;;;5.78;;
24751;SDS011;27246;52.376;4.628;2023-04-01T23:56:42;9.77;;;4.90;;
